Terminal Aerodrome Forecast
Issued by NWS

Home | Current Version | Previous Version | Text Only | Print | Product List | Glossary Off
Versions: 1 2 3 4 5 6 7 8 9 10 11 12 13 14 15 16 17 18 19 20 21 22 23 24 25 26 27 28 29 30 31 32 33 34 35 36 37 38 39 40 41 42 43 44 45 46 47 48 49 50

000
FTUS43 KLOT 130500
TAFGYY
TAF
KGYY 130532Z 1306/1406 28013KT 3SM -TSRA SCT020CB BKN060 OVC090
     FM130800 30008KT P6SM VCSH SCT020 SCT040 OVC080
     FM131100 29007KT P6SM BKN020
     FM131400 29009KT P6SM SCT020
     FM131800 28010G17KT P6SM SCT045
     FM140000 30009KT P6SM BKN050=

USA.gov is the U.S. government's official web portal to all federal, state and local government web resources and services.